Time;durP1;ratioP1;P1;durP2;ratioP2;P2;SDS_P1;SDS_P2;PMS_P1;PMS_P2;Temp;Humidity;BMP_temperature;BMP_pressure;BME280_temperature;BME280_humidity;BME280_pressure;Samples;Min_cycle;Max_cycle;Signal;HPM_P1;HPM_P2
2022/07/01 00:02:00;;;;;;;7.38;4.00;;;;;;;14.39;80.13;99519.84;4963521;28;20051;-71
2022/07/01 00:04:27;;;;;;;6.28;3.75;;;;;;;14.36;80.53;99514.75;4964136;28;20631;-72
2022/07/01 00:06:54;;;;;;;7.07;3.67;;;;;;;14.32;81.35;99515.94;4964207;28;20047;-71
2022/07/01 00:09:21;;;;;;;4.30;3.38;;;;;;;14.34;80.28;99516.66;4963780;28;20146;-71
2022/07/01 00:11:48;;;;;;;5.13;3.33;;;;;;;14.34;79.85;99526.44;4963118;28;20050;-70
2022/07/01 00:14:15;;;;;;;4.47;3.20;;;;;;;14.30;79.92;99517.84;4963803;28;20051;-69
2022/07/01 00:16:43;;;;;;;5.90;3.15;;;;;;;14.27;80.15;99504.78;4963536;28;20074;-72
2022/07/01 00:19:11;;;;;;;3.97;2.95;;;;;;;14.23;80.09;99505.13;4963447;28;20134;-70
2022/07/01 00:21:37;;;;;;;7.82;3.55;;;;;;;14.15;79.93;99508.28;4963280;28;20421;-71
2022/07/01 00:24:04;;;;;;;3.65;3.30;;;;;;;14.14;80.85;99507.44;4957104;28;20043;-71
2022/07/01 00:26:31;;;;;;;4.03;3.10;;;;;;;14.14;80.68;99509.25;4959575;28;20592;-72
2022/07/01 00:28:58;;;;;;;5.00;3.47;;;;;;;14.11;80.87;99517.41;4964408;28;20046;-71
2022/07/01 00:31:25;;;;;;;6.45;3.58;;;;;;;14.05;80.95;99523.13;4963282;28;20055;-70
2022/07/01 00:33:51;;;;;;;4.53;3.40;;;;;;;14.00;81.28;99535.81;4962738;28;20413;-71
2022/07/01 00:36:19;;;;;;;4.00;3.10;;;;;;;13.96;80.82;99537.84;4963281;28;20132;-70
2022/07/01 00:38:46;;;;;;;6.03;3.45;;;;;;;13.96;81.73;99543.16;4963427;28;20057;-71
2022/07/01 00:41:12;;;;;;;3.72;3.10;;;;;;;13.94;81.69;99537.09;4964107;28;20054;-72
2022/07/01 00:43:39;;;;;;;3.35;2.70;;;;;;;13.94;81.53;99543.25;4966499;28;20050;-70
2022/07/01 00:46:06;;;;;;;3.97;3.22;;;;;;;13.93;81.50;99553.94;4966659;28;20055;-70
2022/07/01 00:48:33;;;;;;;4.35;3.20;;;;;;;13.94;81.63;99553.00;4967067;28;20046;-70
2022/07/01 00:51:00;;;;;;;8.05;2.95;;;;;;;13.93;81.53;99543.34;4967191;28;20057;-71
2022/07/01 00:53:29;;;;;;;4.00;3.20;;;;;;;13.95;82.10;99538.78;4966808;28;20051;-71
2022/07/01 00:55:56;;;;;;;7.00;3.20;;;;;;;13.96;81.64;99541.34;4967118;28;20051;-70
2022/07/01 00:58:23;;;;;;;3.90;2.88;;;;;;;13.96;81.81;99541.34;4966899;28;20133;-70
2022/07/01 01:00:49;;;;;;;4.80;3.28;;;;;;;13.95;82.10;99538.78;4960858;28;20046;-70
2022/07/01 01:03:16;;;;;;;5.35;3.55;;;;;;;13.94;81.95;99550.34;4967203;28;20058;-70
2022/07/01 01:05:43;;;;;;;5.07;3.75;;;;;;;13.93;81.48;99567.19;4967716;28;20138;-70
2022/07/01 01:08:10;;;;;;;3.70;3.00;;;;;;;13.92;82.02;99568.16;4967068;28;20072;-70
2022/07/01 01:10:38;;;;;;;6.30;3.25;;;;;;;13.95;81.93;99570.59;4967618;28;20057;-69
2022/07/01 01:13:05;;;;;;;5.85;3.88;;;;;;;13.92;81.18;99576.94;4966733;28;20057;-69
2022/07/01 01:15:32;;;;;;;4.78;3.17;;;;;;;13.92;81.36;99584.91;4966864;28;20510;-70
2022/07/01 01:17:59;;;;;;;5.40;3.08;;;;;;;13.90;81.76;99580.66;4967034;28;20449;-69
2022/07/01 01:20:27;;;;;;;4.22;3.78;;;;;;;13.87;81.63;99581.69;4967131;28;20188;-69
2022/07/01 01:22:55;;;;;;;5.25;3.50;;;;;;;13.87;81.00;99573.75;4967317;28;20548;-69
2022/07/01 01:25:21;;;;;;;5.95;3.72;;;;;;;13.84;80.86;99568.66;4961745;28;20089;-69
2022/07/01 01:27:48;;;;;;;3.55;2.72;;;;;;;13.86;80.69;99561.47;4960743;28;20257;-69
2022/07/01 01:30:15;;;;;;;5.68;4.40;;;;;;;13.84;80.40;99555.41;4967048;28;20506;-69
2022/07/01 01:32:43;;;;;;;7.40;3.58;;;;;;;13.87;80.56;99549.91;4968053;28;20129;-70
2022/07/01 01:35:10;;;;;;;7.15;3.90;;;;;;;13.86;80.74;99542.06;4968390;28;20051;-69
2022/07/01 01:37:37;;;;;;;7.53;4.30;;;;;;;13.86;80.57;99550.88;4967619;28;20047;-70
2022/07/01 01:40:07;;;;;;;8.05;4.57;;;;;;;13.83;80.18;99559.03;4966476;28;20047;-68
2022/07/01 01:42:33;;;;;;;5.70;3.65;;;;;;;13.80;80.23;99567.16;4950454;28;20050;-70
2022/07/01 01:45:00;;;;;;;5.18;4.03;;;;;;;13.82;80.14;99581.16;4966594;28;20571;-68
2022/07/01 01:47:27;;;;;;;5.43;3.67;;;;;;;13.81;79.95;99587.41;4966889;28;20078;-67
2022/07/01 01:49:53;;;;;;;4.45;3.60;;;;;;;13.83;80.64;99592.59;4966488;28;20147;-69
2022/07/01 01:52:20;;;;;;;4.47;3.83;;;;;;;13.86;80.48;99590.63;4966143;28;20065;-68
2022/07/01 01:54:46;;;;;;;5.93;3.88;;;;;;;13.85;80.09;99591.53;4966581;28;20050;-69
2022/07/01 01:57:14;;;;;;;5.18;3.60;;;;;;;13.87;80.47;99573.75;4967096;28;20802;-70
2022/07/01 01:59:41;;;;;;;5.40;3.53;;;;;;;13.84;80.25;99576.63;4967115;28;20129;-69
2022/07/01 02:02:08;;;;;;;10.48;3.60;;;;;;;13.82;79.84;99575.00;4966629;28;20046;-69
2022/07/01 02:04:34;;;;;;;5.72;3.58;;;;;;;13.83;80.11;99587.31;4966986;28;20418;-68
2022/07/01 02:07:01;;;;;;;6.50;4.03;;;;;;;13.83;80.51;99593.47;4966420;28;20061;-69
2022/07/01 02:09:28;;;;;;;7.28;3.50;;;;;;;13.83;80.54;99600.53;4966224;28;20061;-70
2022/07/01 02:11:55;;;;;;;5.30;3.92;;;;;;;13.80;80.42;99598.94;4966783;28;20135;-69
2022/07/01 02:14:23;;;;;;;5.45;3.50;;;;;;;13.78;80.12;99595.56;4965935;28;20077;-70
2022/07/01 02:16:50;;;;;;;4.72;3.15;;;;;;;13.82;80.27;99586.47;4966776;28;20526;-70
2022/07/01 02:19:16;;;;;;;5.05;3.38;;;;;;;13.81;79.85;99586.53;4966387;28;20082;-70
2022/07/01 02:21:43;;;;;;;4.57;3.78;;;;;;;13.83;80.03;99590.81;4965717;28;20050;-70
2022/07/01 02:24:09;;;;;;;5.28;3.30;;;;;;;13.81;80.03;99602.44;4963950;28;20061;-70
2022/07/01 02:26:36;;;;;;;6.78;3.85;;;;;;;13.82;79.94;99597.06;4962470;28;20046;-69
2022/07/01 02:29:04;;;;;;;6.15;3.42;;;;;;;13.79;80.06;99607.03;4965667;28;20054;-69
2022/07/01 02:31:32;;;;;;;6.78;3.53;;;;;;;13.80;80.06;99622.78;4965522;28;20061;-69
2022/07/01 02:33:58;;;;;;;6.50;4.90;;;;;;;13.81;79.66;99624.53;4964912;28;20053;-70
2022/07/01 02:36:25;;;;;;;4.65;3.80;;;;;;;13.84;80.15;99619.00;4964951;28;20130;-70
2022/07/01 02:38:52;;;;;;;6.28;3.78;;;;;;;13.84;79.82;99620.81;4965747;28;20043;-69
2022/07/01 02:41:18;;;;;;;6.32;3.40;;;;;;;13.86;79.86;99630.38;4965472;28;20055;-69
2022/07/01 02:43:45;;;;;;;7.25;4.07;;;;;;;13.88;80.01;99640.84;4964981;28;20046;-69
2022/07/01 02:46:11;;;;;;;8.07;4.25;;;;;;;13.88;79.94;99640.84;4965095;28;20074;-70
2022/07/01 02:48:39;;;;;;;9.00;5.05;;;;;;;13.88;79.58;99647.03;4965581;28;20047;-70
2022/07/01 02:51:06;;;;;;;4.13;3.40;;;;;;;13.90;79.26;99649.56;4965405;28;20351;-70
2022/07/01 02:53:33;;;;;;;5.18;3.60;;;;;;;13.88;79.14;99648.78;4964215;28;20051;-69
2022/07/01 02:55:59;;;;;;;7.43;4.43;;;;;;;13.88;79.27;99639.06;4965295;28;20542;-70
2022/07/01 02:58:26;;;;;;;5.53;3.85;;;;;;;13.90;78.98;99644.25;4965001;28;20055;-69
2022/07/01 03:00:53;;;;;;;4.03;3.13;;;;;;;13.89;79.14;99643.41;4965468;28;20498;-70
2022/07/01 03:03:20;;;;;;;6.10;3.75;;;;;;;13.89;79.19;99642.56;4964335;28;20062;-71
2022/07/01 03:05:49;;;;;;;7.65;4.03;;;;;;;13.90;79.27;99638.94;4965485;28;20046;-70
2022/07/01 03:08:15;;;;;;;5.15;3.35;;;;;;;13.91;78.85;99640.66;4966578;28;20054;-69
2022/07/01 03:10:42;;;;;;;5.88;3.95;;;;;;;13.92;78.68;99645.84;4965504;28;20047;-70
2022/07/01 03:13:09;;;;;;;7.50;3.28;;;;;;;13.91;78.76;99644.16;4965295;28;20047;-70
2022/07/01 03:15:35;;;;;;;6.38;3.55;;;;;;;13.94;79.25;99643.94;4966072;28;20149;-71
2022/07/01 03:18:02;;;;;;;10.05;3.55;;;;;;;13.97;78.91;99650.84;4965071;28;20056;-70
2022/07/01 03:20:28;;;;;;;8.18;4.13;;;;;;;13.98;78.54;99657.88;4964799;28;20956;-70
2022/07/01 03:22:56;;;;;;;5.57;3.80;;;;;;;13.99;78.32;99664.00;4964826;28;20421;-70
2022/07/01 03:25:23;;;;;;;8.98;4.00;;;;;;;14.00;78.22;99677.16;4964568;28;20072;-70
2022/07/01 03:27:50;;;;;;;6.28;3.38;;;;;;;13.99;78.64;99675.47;4965026;28;20058;-70
2022/07/01 03:30:17;;;;;;;5.38;3.40;;;;;;;13.99;78.51;99679.91;4965020;28;20077;-70
2022/07/01 03:32:44;;;;;;;5.97;3.97;;;;;;;13.96;78.16;99681.81;4964618;28;20046;-70
2022/07/01 03:38:11;;;;;;;9.00;2.65;;;;;;;13.98;78.11;99678.19;4904488;29;20048;-71
2022/07/01 03:40:39;;;;;;;4.85;3.65;;;;;;;13.95;78.15;99677.47;4905061;29;20048;-72
2022/07/01 03:43:06;;;;;;;5.43;4.57;;;;;;;13.96;78.31;99673.03;4930138;28;20126;-70
2022/07/01 03:45:33;;;;;;;7.05;3.35;;;;;;;13.96;78.13;99662.41;4964607;28;20067;-70
2022/07/01 03:48:00;;;;;;;6.40;3.42;;;;;;;14.00;78.31;99660.41;4964572;28;20039;-71
2022/07/01 03:50:27;;;;;;;5.30;3.67;;;;;;;14.00;78.20;99663.06;4964537;28;20443;-70
2022/07/01 03:55:36;;;;;;;4.05;2.85;;;;;;;13.93;78.20;99659.94;4963742;28;20422;-70
2022/07/01 03:58:02;;;;;;;5.10;3.22;;;;;;;13.89;78.78;99659.31;4965018;28;20051;-69
2022/07/01 04:00:29;;;;;;;5.85;3.22;;;;;;;13.91;78.18;99662.72;4965341;28;20061;-69
2022/07/01 04:02:55;;;;;;;3.53;2.83;;;;;;;13.92;78.74;99682.09;4964416;28;20070;-70
2022/07/01 04:05:22;;;;;;;5.38;3.17;;;;;;;13.90;78.46;99689.31;4964935;28;20061;-70
2022/07/01 04:07:49;;;;;;;10.48;4.45;;;;;;;13.90;78.82;99689.31;4965050;28;20625;-71
2022/07/01 04:10:15;;;;;;;7.47;3.63;;;;;;;13.85;78.64;99686.09;4964648;28;20092;-70
2022/07/01 04:12:44;;;;;;;7.50;3.53;;;;;;;13.88;78.71;99685.91;4964484;28;20524;-70
2022/07/01 04:15:11;;;;;;;4.68;3.22;;;;;;;13.92;78.50;99676.81;4964085;28;20418;-70
2022/07/01 04:17:38;;;;;;;6.45;3.90;;;;;;;13.90;78.70;99663.66;4963829;28;20053;-70
2022/07/01 04:20:06;;;;;;;8.57;3.63;;;;;;;13.91;78.23;99668.00;4963781;28;20050;-68
2022/07/01 04:22:35;;;;;;;6.53;4.55;;;;;;;13.93;78.51;99671.41;4947880;28;20054;-69
2022/07/01 04:25:03;;;;;;;4.03;2.95;;;;;;;13.91;78.46;99678.63;4960319;28;20058;-69
2022/07/01 04:27:30;;;;;;;6.65;3.40;;;;;;;13.90;78.50;99690.16;4956052;28;20054;-70
2022/07/01 04:29:58;;;;;;;8.15;3.28;;;;;;;13.93;78.41;99675.84;4965374;28;20047;-71
2022/07/01 04:32:24;;;;;;;8.20;3.30;;;;;;;13.95;78.32;99673.94;4964110;28;20054;-71
2022/07/01 04:34:51;;;;;;;6.40;3.40;;;;;;;13.96;78.48;99675.66;4964185;28;20043;-71
2022/07/01 04:37:18;;;;;;;6.03;2.75;;;;;;;13.98;78.39;99683.50;4963314;28;20077;-70
2022/07/01 04:39:44;;;;;;;3.92;3.03;;;;;;;14.02;78.30;99677.06;4963581;28;20050;-72
2022/07/01 04:42:11;;;;;;;8.25;2.90;;;;;;;14.07;77.58;99669.66;4963499;28;20161;-71
2022/07/01 04:44:38;;;;;;;4.60;3.00;;;;;;;14.09;77.88;99659.81;4967453;28;20053;-71
2022/07/01 04:47:06;;;;;;;5.78;3.72;;;;;;;14.12;78.14;99656.94;4965808;28;20142;-71
2022/07/01 04:49:33;;;;;;;7.13;3.30;;;;;;;14.15;77.49;99654.09;4966100;28;20421;-69
2022/07/01 04:52:00;;;;;;;5.15;3.20;;;;;;;14.21;77.61;99653.69;4964587;28;20055;-70
2022/07/01 04:54:27;;;;;;;3.13;2.67;;;;;;;14.23;77.77;99657.09;4964814;28;20078;-71
2022/07/01 04:56:54;;;;;;;4.13;3.05;;;;;;;14.26;77.48;99662.19;4966794;28;20057;-70
2022/07/01 04:59:21;;;;;;;4.60;2.80;;;;;;;14.25;77.56;99660.50;4966651;28;20053;-70
2022/07/01 05:01:49;;;;;;;5.10;3.10;;;;;;;14.27;77.18;99658.56;4965845;28;20100;-69
2022/07/01 05:04:18;;;;;;;4.45;2.78;;;;;;;14.33;77.63;99655.53;4963680;28;20051;-70
2022/07/01 05:06:45;;;;;;;8.32;3.47;;;;;;;14.31;77.00;99654.78;4964095;28;20114;-70
2022/07/01 05:09:12;;;;;;;8.07;2.72;;;;;;;14.35;76.88;99658.09;4963542;28;20087;-70
2022/07/01 05:11:39;;;;;;;5.05;3.40;;;;;;;14.36;76.73;99657.13;4964012;28;20134;-70
2022/07/01 05:14:06;;;;;;;6.13;2.65;;;;;;;14.41;77.01;99659.47;4962592;28;20042;-70
2022/07/01 05:16:33;;;;;;;4.55;3.47;;;;;;;14.41;76.86;99651.50;4955299;28;20055;-70
2022/07/01 05:21:58;;;;;;;6.07;3.47;;;;;;;14.54;76.66;99655.91;4963020;28;20058;-69
2022/07/01 05:24:25;;;;;;;3.08;2.45;;;;;;;14.62;76.22;99652.75;4956059;28;20086;-70
2022/07/01 05:26:52;;;;;;;5.32;3.25;;;;;;;14.68;75.58;99648.81;4962689;28;20074;-69
2022/07/01 05:29:18;;;;;;;5.90;3.45;;;;;;;14.75;75.54;99658.91;4966150;28;20597;-68
2022/07/01 05:31:45;;;;;;;7.28;2.75;;;;;;;14.88;74.94;99655.41;4966418;28;20146;-69
2022/07/01 05:34:12;;;;;;;5.45;2.60;;;;;;;14.99;74.59;99658.19;4965473;28;20055;-68
2022/07/01 05:36:39;;;;;;;8.10;3.35;;;;;;;15.15;73.93;99672.06;4967174;28;20068;-70
2022/07/01 05:39:07;;;;;;;7.20;2.83;;;;;;;15.28;73.00;99668.56;4967225;28;20283;-70
2022/07/01 05:41:34;;;;;;;5.15;3.22;;;;;;;15.24;72.89;99671.44;4967636;28;20122;-68
2022/07/01 05:44:01;;;;;;;10.77;2.78;;;;;;;15.23;72.81;99674.19;4965913;28;20063;-70
2022/07/01 05:46:27;;;;;;;6.30;3.17;;;;;;;15.13;73.32;99681.09;4966693;28;20520;-69
2022/07/01 05:48:54;;;;;;;4.95;3.28;;;;;;;15.14;73.55;99674.84;4966943;28;20138;-70
2022/07/01 05:51:21;;;;;;;4.75;3.40;;;;;;;15.20;73.61;99687.69;4966266;28;20440;-70
2022/07/01 05:53:48;;;;;;;7.05;3.22;;;;;;;15.21;73.79;99695.56;4965882;28;20050;-70
2022/07/01 05:56:16;;;;;;;6.80;3.15;;;;;;;15.23;73.92;99698.09;4965638;28;20050;-70
2022/07/01 05:58:43;;;;;;;5.93;2.80;;;;;;;15.23;73.61;99691.00;4965886;28;20061;-70
2022/07/01 06:01:09;;;;;;;7.95;2.90;;;;;;;15.28;73.43;99693.28;4966034;28;20066;-71
2022/07/01 06:03:36;;;;;;;4.57;2.88;;;;;;;15.32;73.59;99693.94;4966150;28;20043;-70
2022/07/01 06:06:03;;;;;;;6.53;2.72;;;;;;;15.28;73.17;99692.47;4966253;28;20058;-71
2022/07/01 06:08:29;;;;;;;7.18;3.30;;;;;;;15.24;73.20;99691.84;4965452;28;20367;-72
2022/07/01 06:10:56;;;;;;;5.30;2.72;;;;;;;15.21;73.57;99697.34;4965616;28;20134;-69
2022/07/01 06:13:24;;;;;;;5.00;2.42;;;;;;;15.17;73.55;99703.84;4965339;28;20054;-70
2022/07/01 06:15:51;;;;;;;4.97;3.00;;;;;;;15.14;73.52;99702.25;4965433;28;20075;-73
2022/07/01 06:18:18;;;;;;;8.18;2.97;;;;;;;15.14;73.40;99702.25;4965332;28;20055;-71
2022/07/01 06:20:45;;;;;;;10.73;3.55;;;;;;;15.18;74.20;99705.53;4965985;28;20054;-69
2022/07/01 06:23:11;;;;;;;9.90;2.83;;;;;;;15.17;73.49;99707.34;4964854;28;20093;-70
2022/07/01 06:25:38;;;;;;;13.95;2.83;;;;;;;15.19;73.78;99700.13;4959635;28;20795;-70
2022/07/01 06:28:05;;;;;;;5.20;2.78;;;;;;;15.26;73.38;99705.84;4965551;28;20061;-70
2022/07/01 06:30:33;;;;;;;7.38;2.97;;;;;;;15.24;73.23;99716.59;4960864;28;20744;-72
2022/07/01 06:32:59;;;;;;;5.93;3.10;;;;;;;15.22;73.29;99715.00;4964805;28;20051;-72
2022/07/01 06:35:26;;;;;;;5.28;2.83;;;;;;;15.19;73.54;99721.38;4965278;28;20106;-73
2022/07/01 06:37:53;;;;;;;5.43;3.33;;;;;;;15.14;73.79;99710.22;4964978;28;20118;-70
2022/07/01 06:40:19;;;;;;;6.32;4.03;;;;;;;15.17;73.48;99711.81;4963630;28;20768;-70
2022/07/01 06:42:46;;;;;;;5.13;3.70;;;;;;;15.15;73.77;99711.91;4963967;28;20050;-70
2022/07/01 06:45:13;;;;;;;4.43;3.97;;;;;;;15.17;73.66;99695.88;4964655;28;20110;-69
2022/07/01 06:47:41;;;;;;;7.07;4.88;;;;;;;15.19;73.13;99716.06;4965928;28;20418;-69
2022/07/01 06:50:09;;;;;;;7.55;4.15;;;;;;;15.25;73.54;99725.38;4965128;28;20050;-70
2022/07/01 06:52:35;;;;;;;6.85;4.60;;;;;;;15.32;73.34;99733.78;4964145;28;20051;-68
2022/07/01 06:55:02;;;;;;;7.78;4.25;;;;;;;15.36;72.59;99727.31;4965293;28;20085;-70
2022/07/01 06:57:29;;;;;;;5.13;3.60;;;;;;;15.46;73.27;99733.69;4965002;28;20518;-43
2022/07/01 06:59:55;;;;;;;11.27;4.88;;;;;;;15.98;74.58;99734.47;4965109;28;20685;-45
2022/07/01 07:02:22;;;;;;;5.78;3.85;;;;;;;16.33;71.75;99725.69;4965154;28;20134;-44
2022/07/01 07:04:50;;;;;;;12.68;4.40;;;;;;;16.53;69.11;99735.69;4964307;28;20078;-41
2022/07/01 07:07:17;;;;;;;6.68;2.55;;;;;;;16.64;69.06;99737.56;4964909;28;20158;-42
2022/07/01 07:09:43;;;;;;;6.63;3.00;;;;;;;16.77;67.85;99738.34;4964454;28;20046;-46
2022/07/01 07:12:10;;;;;;;6.75;2.97;;;;;;;16.84;67.28;99733.44;4965035;28;20138;-45
2022/07/01 07:14:37;;;;;;;11.05;2.90;;;;;;;16.95;67.25;99728.97;4965010;28;20043;-51
2022/07/01 07:17:04;;;;;;;11.80;2.78;;;;;;;17.09;66.33;99727.91;4964597;28;20050;-53
2022/07/01 07:19:30;;;;;;;5.53;2.72;;;;;;;17.08;66.18;99731.56;4964386;28;20054;-45
2022/07/01 07:21:58;;;;;;;3.88;2.60;;;;;;;17.20;65.05;99743.03;4963341;28;20047;-71
2022/07/01 07:24:25;;;;;;;7.93;3.08;;;;;;;17.01;65.69;99740.13;4963786;28;20050;-72
2022/07/01 07:26:52;;;;;;;4.63;2.88;;;;;;;16.90;65.67;99751.59;4952850;28;20788;-71
2022/07/01 07:29:18;;;;;;;6.72;2.83;;;;;;;16.82;65.87;99762.81;4964528;28;20151;-70
2022/07/01 07:31:45;;;;;;;7.63;3.35;;;;;;;16.81;66.08;99750.50;4965048;28;20485;-72
2022/07/01 07:34:12;;;;;;;6.22;3.10;;;;;;;17.08;65.17;99751.97;4964519;28;20051;-73
2022/07/01 07:36:38;;;;;;;4.50;2.55;;;;;;;17.23;63.69;99756.16;4965295;28;20546;-71
2022/07/01 07:39:06;;;;;;;4.47;2.80;;;;;;;17.69;62.21;99755.19;4964037;28;20050;-71
2022/07/01 07:41:33;;;;;;;5.00;2.40;;;;;;;17.87;60.74;99757.41;4961429;28;21188;-70
2022/07/01 07:43:59;;;;;;;2.88;2.30;;;;;;;18.12;60.75;99746.47;4962713;28;20046;-71
2022/07/01 07:46:26;;;;;;;7.90;2.65;;;;;;;18.35;60.50;99743.72;4963593;28;20042;-71
2022/07/01 07:48:52;;;;;;;3.70;2.50;;;;;;;18.44;59.64;99756.31;4963494;28;20506;-72
2022/07/01 07:51:22;;;;;;;3.38;2.15;;;;;;;18.59;58.90;99752.38;4964219;28;20047;-68
2022/07/01 07:53:49;;;;;;;7.25;2.60;;;;;;;18.65;58.72;99749.19;4962129;28;20133;-69
2022/07/01 07:56:17;;;;;;;5.35;3.00;;;;;;;18.60;57.59;99747.88;4962761;28;20054;-68
2022/07/01 07:58:44;;;;;;;4.65;2.00;;;;;;;18.69;57.85;99752.44;4962897;28;20046;-69
2022/07/01 08:01:10;;;;;;;7.65;2.60;;;;;;;18.92;58.40;99758.56;4963364;28;20336;-68
2022/07/01 08:03:37;;;;;;;5.13;2.15;;;;;;;18.98;56.58;99760.72;4962828;28;20050;-68
2022/07/01 08:06:04;;;;;;;2.88;2.25;;;;;;;18.74;57.01;99760.09;4963248;28;20593;-69
2022/07/01 08:08:31;;;;;;;4.10;2.20;;;;;;;18.47;58.00;99755.22;4962890;28;20161;-68
2022/07/01 08:10:57;;;;;;;4.10;1.67;;;;;;;18.22;57.85;99768.75;4962924;28;20533;-68
2022/07/01 08:13:25;;;;;;;4.10;2.10;;;;;;;18.27;57.35;99765.72;4963230;28;20055;-69
2022/07/01 08:15:52;;;;;;;4.10;2.33;;;;;;;18.35;57.24;99760.59;4963255;28;20582;-68
2022/07/01 08:18:19;;;;;;;5.40;2.33;;;;;;;18.30;55.41;99762.78;4961886;28;20537;-68
2022/07/01 08:20:46;;;;;;;7.45;2.13;;;;;;;18.50;54.65;99766.47;4962860;28;20050;-69
2022/07/01 08:23:13;;;;;;;4.25;2.08;;;;;;;18.64;54.64;99774.19;4961552;28;20061;-68
2022/07/01 08:25:40;;;;;;;5.22;1.98;;;;;;;18.78;55.65;99777.56;4955532;28;20043;-67
2022/07/01 08:28:07;;;;;;;6.63;1.80;;;;;;;18.87;55.06;99774.97;4960205;28;20751;-67
2022/07/01 08:30:35;;;;;;;4.55;2.22;;;;;;;19.14;54.90;99760.25;4963132;28;20057;-68
2022/07/01 08:33:01;;;;;;;5.70;2.17;;;;;;;19.38;53.73;99767.16;4963413;28;20522;-68
2022/07/01 08:35:28;;;;;;;11.55;2.30;;;;;;;19.23;54.69;99770.16;4964352;28;20395;-69
2022/07/01 08:37:56;;;;;;;6.95;2.50;;;;;;;19.00;53.99;99769.47;4964183;28;20046;-68
2022/07/01 08:40:25;;;;;;;5.80;2.40;;;;;;;18.88;53.30;99774.00;4962872;28;20521;-68
2022/07/01 08:42:56;;;;;;;5.45;2.00;;;;;;;18.72;53.22;99780.72;4962169;28;20050;-69
2022/07/01 08:45:24;;;;;;;5.93;2.00;;;;;;;18.67;53.76;99779.28;4963073;28;20173;-69
2022/07/01 08:47:53;;;;;;;4.38;2.22;;;;;;;18.70;54.44;99785.34;4963038;28;20232;-68
2022/07/01 08:50:19;;;;;;;5.38;1.85;;;;;;;18.67;54.30;99797.13;4962728;28;20058;-68
2022/07/01 08:52:46;;;;;;;4.63;2.35;;;;;;;18.72;53.94;99799.41;4962523;28;20047;-68
2022/07/01 08:55:12;;;;;;;3.13;2.10;;;;;;;18.82;53.40;99795.03;4962578;28;20070;-68
2022/07/01 08:57:39;;;;;;;2.33;1.50;;;;;;;18.93;51.25;99794.16;4960644;28;20051;-69
2022/07/01 09:00:08;;;;;;;4.30;2.00;;;;;;;19.16;51.51;99800.22;4962330;28;20396;-69
2022/07/01 09:02:54;;;;;;;5.65;2.75;;;;;;;19.43;49.65;99792.50;4948784;28;20042;-69
2022/07/01 09:05:21;;;;;;;3.60;1.80;;;;;;;19.72;49.97;99791.84;4966357;28;20054;-68
2022/07/01 09:07:49;;;;;;;2.63;2.00;;;;;;;19.73;49.95;99796.22;4966558;28;20493;-72
2022/07/01 09:10:18;;;;;;;6.20;2.15;;;;;;;19.87;48.61;99803.88;4965724;28;20152;-68
2022/07/01 09:12:45;;;;;;;4.65;2.72;;;;;;;20.25;48.45;99806.81;4965879;28;20066;-68
2022/07/01 09:15:29;;;;;;;7.95;3.08;;;;;;;20.78;47.90;99799.31;4965974;28;20078;-68
2022/07/01 09:18:03;;;;;;;6.75;3.33;;;;;;;21.03;46.70;99794.38;4966652;28;20061;-68
2022/07/01 09:20:32;;;;;;;4.30;2.20;;;;;;;21.48;45.29;99801.78;4966195;28;20113;-69
2022/07/01 09:23:00;;;;;;;3.60;2.25;;;;;;;21.92;43.73;99811.97;4965755;28;20762;-68
2022/07/01 09:25:30;;;;;;;5.95;2.30;;;;;;;22.08;42.54;99801.44;4959717;28;20082;-68
2022/07/01 09:28:05;;;;;;;3.13;2.38;;;;;;;22.19;42.13;99805.75;4965984;28;20050;-68
2022/07/01 09:30:32;;;;;;;4.73;1.83;;;;;;;22.18;42.74;99821.03;4950268;28;20054;-69
2022/07/01 09:33:07;;;;;;;4.20;1.95;;;;;;;21.49;43.09;99819.59;4965322;28;20051;-70
2022/07/01 09:35:36;;;;;;;4.80;2.20;;;;;;;21.05;44.45;99837.13;4966065;28;20051;-69
2022/07/01 09:38:02;;;;;;;5.65;2.65;;;;;;;20.66;45.95;99832.59;4965699;28;20059;-68
2022/07/01 09:40:46;;;;;;;3.58;1.60;;;;;;;20.44;46.84;99844.34;4965835;28;20043;-69
2022/07/01 09:43:16;;;;;;;4.40;2.63;;;;;;;20.26;47.33;99844.16;4965616;28;20055;-69
2022/07/01 09:45:50;;;;;;;5.72;2.00;;;;;;;20.15;48.07;99849.63;4966967;28;20081;-67
2022/07/01 09:48:18;;;;;;;4.63;2.17;;;;;;;20.12;48.19;99834.66;4966479;28;20055;-68
2022/07/01 09:50:45;;;;;;;4.43;2.40;;;;;;;20.09;48.70;99844.81;4966724;28;20047;-69
2022/07/01 09:53:13;;;;;;;2.85;2.45;;;;;;;21.65;44.64;99833.22;4965727;28;20057;-67
2022/07/01 09:55:40;;;;;;;6.15;2.50;;;;;;;23.32;40.78;99833.97;4966445;28;20073;-67
2022/07/01 09:58:07;;;;;;;4.50;2.20;;;;;;;22.84;41.62;99838.75;4966233;28;20682;-67
2022/07/01 10:00:37;;;;;;;8.35;2.33;;;;;;;21.95;43.33;99833.97;4966542;28;20054;-68
2022/07/01 10:03:05;;;;;;;5.18;2.25;;;;;;;21.55;45.01;99843.16;4966190;28;20077;-69
2022/07/01 10:05:39;;;;;;;4.00;2.72;;;;;;;21.64;44.22;99830.72;4967111;28;20061;-69
2022/07/01 10:08:20;;;;;;;5.15;2.65;;;;;;;22.04;42.45;99832.25;4965950;28;20047;-69
2022/07/01 10:10:58;;;;;;;6.57;2.28;;;;;;;21.82;43.38;99839.69;4966067;28;20047;-68
2022/07/01 10:13:27;;;;;;;5.68;2.08;;;;;;;21.80;42.21;99843.50;4965419;28;20065;-69
2022/07/01 10:15:56;;;;;;;3.22;2.22;;;;;;;23.40;39.14;99841.25;4965953;28;20051;-70
2022/07/01 10:18:24;;;;;;;5.13;2.53;;;;;;;24.82;36.76;99847.00;4965805;28;20059;-69
2022/07/01 10:20:54;;;;;;;5.10;2.35;;;;;;;25.78;34.67;99832.81;4966023;28;20146;-68
2022/07/01 10:23:22;;;;;;;5.70;2.40;;;;;;;26.57;33.12;99822.09;4965604;28;20051;-68
2022/07/01 10:25:50;;;;;;;2.72;2.00;;;;;;;26.67;32.98;99828.09;4961068;28;20042;-67
2022/07/01 10:28:22;;;;;;;5.13;1.83;;;;;;;25.17;35.25;99827.00;4965291;28;20062;-68
2022/07/01 10:30:55;;;;;;;3.90;1.90;;;;;;;23.82;38.08;99833.31;4966114;28;20078;-67
2022/07/01 10:33:33;;;;;;;5.80;2.03;;;;;;;23.10;37.82;99835.28;4965066;28;20142;-67
2022/07/01 10:36:10;;;;;;;4.28;1.70;;;;;;;22.51;39.82;99838.38;4965939;28;20047;-68
2022/07/01 10:39:10;;;;;;;5.35;1.83;;;;;;;22.00;40.55;99838.91;4951076;28;20621;-69
2022/07/01 10:41:39;;;;;;;9.85;2.10;;;;;;;21.75;42.39;99835.88;4965557;28;20043;-69
2022/07/01 10:44:08;;;;;;;5.00;2.00;;;;;;;21.49;43.07;99835.69;4965124;28;20062;-68
2022/07/01 10:46:43;;;;;;;2.72;1.50;;;;;;;21.27;44.19;99839.50;4966025;28;20133;-67
2022/07/01 10:49:12;;;;;;;2.58;1.55;;;;;;;21.07;44.70;99835.13;4965662;28;20671;-68
2022/07/01 10:51:54;;;;;;;6.82;2.72;;;;;;;22.20;42.74;99834.31;4965825;28;20494;-69
2022/07/01 10:54:48;;;;;;;3.90;2.00;;;;;;;23.33;38.94;99835.63;4964420;28;20051;-70
2022/07/01 10:57:35;;;;;;;4.78;1.50;;;;;;;24.00;37.75;99835.94;4965145;28;20054;-70
2022/07/01 11:00:41;;;;;;;3.28;1.27;;;;;;;24.53;36.64;99836.66;4965540;28;20055;-70
2022/07/01 11:03:13;;;;;;;4.82;1.38;;;;;;;23.45;38.47;99826.31;4954056;28;20038;-68
2022/07/01 11:05:41;;;;;;;3.67;1.67;;;;;;;22.60;39.63;99820.53;4965254;28;20049;-68
2022/07/01 11:08:11;;;;;;;4.43;1.77;;;;;;;21.86;41.42;99816.09;4964466;28;20117;-70
2022/07/01 11:10:38;;;;;;;3.05;1.52;;;;;;;21.50;42.94;99821.28;4964649;28;20741;-69
2022/07/01 11:13:05;;;;;;;5.38;1.73;;;;;;;21.27;43.80;99830.63;4963984;28;20689;-69
2022/07/01 11:15:32;;;;;;;3.20;1.77;;;;;;;21.15;43.84;99836.13;4964289;28;20141;-69
2022/07/01 11:18:01;;;;;;;4.35;2.05;;;;;;;21.15;44.25;99836.13;4964842;28;20146;-70
2022/07/01 11:20:31;;;;;;;4.72;1.70;;;;;;;21.23;44.05;99830.03;4964807;28;20060;-69
2022/07/01 11:22:58;;;;;;;3.90;2.10;;;;;;;21.33;44.53;99828.19;4964203;28;20521;-69
2022/07/01 11:25:26;;;;;;;3.33;1.73;;;;;;;21.62;44.38;99828.16;4958055;28;20051;-69
2022/07/01 11:27:53;;;;;;;4.20;1.73;;;;;;;21.77;43.27;99828.53;4959588;28;20086;-67
2022/07/01 11:30:21;;;;;;;6.75;1.30;;;;;;;21.80;44.07;99822.88;4964489;28;20054;-68
2022/07/01 11:32:50;;;;;;;3.58;1.60;;;;;;;22.00;42.19;99828.16;4964243;28;20074;-69
2022/07/01 11:40:59;;;;;;;5.05;1.60;;;;;;;22.09;40.73;99828.13;4952008;28;20057;-71
2022/07/01 11:43:30;;;;;;;2.05;1.25;;;;;;;22.28;40.97;99810.25;4953402;28;20146;-76
2022/07/01 11:46:01;;;;;;;2.53;1.65;;;;;;;22.37;41.15;99821.94;4957931;28;20133;-77
2022/07/01 11:48:40;;;;;;;10.25;1.60;;;;;;;22.29;40.69;99818.16;4952416;28;20043;-75
2022/07/01 11:51:12;;;;;;;3.80;1.83;;;;;;;22.04;42.20;99826.88;4964439;28;20121;-76
2022/07/01 11:53:40;;;;;;;8.90;1.55;;;;;;;21.92;42.46;99831.59;4963879;28;20046;-76